createdAt,value
2019-05-17T00:00:07.261Z,99.99
2019-05-17T00:01:07.063Z,99.99
2019-05-17T00:02:06.907Z,99.99
2019-05-17T00:03:52.088Z,99.99
2019-05-17T00:04:42.470Z,99.99
2019-05-17T00:05:42.885Z,99.99
2019-05-17T00:06:42.441Z,99.99
2019-05-17T00:07:42.431Z,99.99
2019-05-17T00:08:42.428Z,99.99
2019-05-17T00:09:42.398Z,99.99
2019-05-17T00:10:42.426Z,99.99
2019-05-17T00:11:42.434Z,99.99
2019-05-17T00:12:42.440Z,99.99
2019-05-17T00:13:42.445Z,99.99
2019-05-17T00:14:42.471Z,99.99
2019-05-17T00:15:42.457Z,99.99
2019-05-17T00:16:42.450Z,99.99
2019-05-17T00:17:42.415Z,99.99
2019-05-17T00:18:42.419Z,99.99
2019-05-17T00:19:42.421Z,99.99
2019-05-17T00:20:42.449Z,99.99
2019-05-17T00:21:42.456Z,99.99
2019-05-17T00:22:42.456Z,99.99
2019-05-17T00:23:42.469Z,99.99
2019-05-17T00:24:42.455Z,99.99
2019-05-17T00:25:42.504Z,99.99
2019-05-17T00:26:42.530Z,99.99
2019-05-17T00:27:42.457Z,99.99
2019-05-17T00:28:42.463Z,99.99
2019-05-17T00:29:42.469Z,99.99
2019-05-17T00:30:42.435Z,99.99
2019-05-17T00:31:42.461Z,99.99
2019-05-17T00:32:42.507Z,99.99
2019-05-17T00:33:53.039Z,99.99
2019-05-17T00:34:42.575Z,99.99
2019-05-17T00:35:42.467Z,99.99
2019-05-17T00:36:42.494Z,99.99
2019-05-17T00:37:42.491Z,99.99
2019-05-17T00:38:51.752Z,99.99
2019-05-17T00:39:42.444Z,99.99
2019-05-17T00:40:42.822Z,99.99
2019-05-17T00:41:42.499Z,99.99
2019-05-17T00:42:42.466Z,99.99
2019-05-17T00:43:42.450Z,99.99
2019-05-17T00:44:42.477Z,99.99
2019-05-17T00:45:42.485Z,99.99
2019-05-17T00:46:42.514Z,99.99
2019-05-17T00:47:42.477Z,99.99
2019-05-17T00:48:42.468Z,99.99
2019-05-17T00:49:42.471Z,99.99
2019-05-17T00:50:42.639Z,99.99
2019-05-17T00:51:42.489Z,99.99
2019-05-17T00:52:42.468Z,99.99
2019-05-17T00:53:42.503Z,99.99
2019-05-17T00:54:42.480Z,99.99
2019-05-17T00:55:42.471Z,99.99
2019-05-17T00:56:42.475Z,99.99
2019-05-17T00:57:42.529Z,99.99
2019-05-17T00:58:42.537Z,99.99
2019-05-17T00:59:42.535Z,99.99
2019-05-17T01:00:42.504Z,99.99
2019-05-17T01:01:42.837Z,99.99
2019-05-17T01:02:42.504Z,99.99
2019-05-17T01:03:52.903Z,99.99
2019-05-17T01:04:42.504Z,99.99
2019-05-17T01:05:42.512Z,99.99
2019-05-17T01:06:42.499Z,99.99
2019-05-17T01:07:42.505Z,99.99
2019-05-17T01:08:42.516Z,99.99
2019-05-17T01:09:42.517Z,99.99
2019-05-17T01:10:42.749Z,99.99
2019-05-17T01:11:42.557Z,99.99
2019-05-17T01:12:42.544Z,99.99
2019-05-17T01:13:42.524Z,99.99
2019-05-17T01:14:42.574Z,99.99
2019-05-17T01:15:42.504Z,99.99
2019-05-17T01:16:42.513Z,99.99
2019-05-17T01:17:42.539Z,99.99
2019-05-17T01:18:42.588Z,99.99
2019-05-17T01:19:42.565Z,99.99
2019-05-17T01:24:59.086Z,99.99
2019-05-17T01:25:12.191Z,99.99
2019-05-17T01:26:12.185Z,99.99
2019-05-17T01:27:12.209Z,99.99
2019-05-17T01:28:12.211Z,99.99
2019-05-17T01:29:12.184Z,99.99
2019-05-17T01:30:12.148Z,99.99
2019-05-17T01:31:12.174Z,99.99
2019-05-17T01:32:12.179Z,99.99
2019-05-17T01:33:12.189Z,99.99
2019-05-17T01:34:12.195Z,99.99
2019-05-17T01:35:12.159Z,99.99
2019-05-17T01:36:12.174Z,99.99
2019-05-17T01:37:12.190Z,99.99
2019-05-17T01:38:12.185Z,99.99
2019-05-17T01:39:21.421Z,99.99
2019-05-17T01:40:12.199Z,99.99
2019-05-17T01:41:12.199Z,99.99
2019-05-17T01:42:12.185Z,99.99
2019-05-17T01:43:12.218Z,99.99
2019-05-17T01:44:12.177Z,99.99
2019-05-17T01:45:12.205Z,99.99
2019-05-17T01:46:12.168Z,99.99
2019-05-17T01:47:12.219Z,99.99
2019-05-17T01:48:12.203Z,99.99
2019-05-17T01:49:12.190Z,99.99
2019-05-17T01:50:12.238Z,99.99
2019-05-17T01:51:12.206Z,99.99
2019-05-17T01:53:33.395Z,99.99
2019-05-17T01:54:33.013Z,99.99
2019-05-17T01:59:51.544Z,99.99
2019-05-17T02:00:03.413Z,99.99
2019-05-17T02:01:03.438Z,99.99
2019-05-17T02:02:03.429Z,99.99
2019-05-17T02:03:06.781Z,99.99
2019-05-17T02:04:03.404Z,99.99
2019-05-17T02:05:03.497Z,99.99
2019-05-17T02:06:03.432Z,99.99
2019-05-17T02:07:03.448Z,99.99
2019-05-17T02:08:03.427Z,99.99
2019-05-17T02:09:03.456Z,99.99
2019-05-17T02:10:03.448Z,99.99
2019-05-17T02:11:03.404Z,99.99
2019-05-17T02:12:03.462Z,99.99
2019-05-17T02:13:03.437Z,99.99
2019-05-17T02:14:03.427Z,99.99
2019-05-17T02:15:03.461Z,99.99
2019-05-17T02:16:03.417Z,99.99
2019-05-17T02:17:03.466Z,99.99
2019-05-17T02:18:03.456Z,99.99
2019-05-17T02:19:03.483Z,99.99
2019-05-17T02:20:03.425Z,99.99
2019-05-17T02:21:03.430Z,99.99
2019-05-17T02:22:03.465Z,99.99
2019-05-17T02:23:03.510Z,99.99
2019-05-17T02:24:03.471Z,99.99
2019-05-17T02:25:03.423Z,99.99
2019-05-17T02:26:03.468Z,99.99
2019-05-17T02:27:03.474Z,99.99
2019-05-17T02:28:04.255Z,99.99
2019-05-17T02:29:04.060Z,99.99
2019-05-17T02:30:05.353Z,99.99
2019-05-17T02:31:06.145Z,99.99
2019-05-17T02:32:06.575Z,99.99
2019-05-17T02:33:06.530Z,99.99
2019-05-17T02:34:05.822Z,99.99
2019-05-17T02:35:06.127Z,99.99
2019-05-17T02:36:05.561Z,99.99
2019-05-17T02:37:05.726Z,99.99
2019-05-17T02:38:05.719Z,99.99
2019-05-17T02:45:32.676Z,99.99
2019-05-17T02:45:46.730Z,99.99
2019-05-17T02:46:46.725Z,99.99
2019-05-17T02:47:46.855Z,99.99
2019-05-17T02:48:46.816Z,99.99
2019-05-17T02:49:46.706Z,99.99
2019-05-17T02:50:53.151Z,99.99
2019-05-17T02:51:46.739Z,99.99
2019-05-17T02:52:46.893Z,99.99
2019-05-17T02:53:46.711Z,99.99
2019-05-17T02:54:46.737Z,99.99
2019-05-17T02:55:46.765Z,99.99
2019-05-17T02:56:46.732Z,99.99
2019-05-17T02:57:46.696Z,99.99
2019-05-17T02:58:46.831Z,99.99
2019-05-17T02:59:46.730Z,99.99
2019-05-17T03:00:47.126Z,99.99
2019-05-17T03:01:47.158Z,99.99
2019-05-17T03:02:46.851Z,99.99
2019-05-17T03:03:46.738Z,99.99
2019-05-17T03:04:46.734Z,99.99
2019-05-17T03:05:46.741Z,99.99
2019-05-17T03:06:46.872Z,99.99
2019-05-17T03:07:47.046Z,99.99
2019-05-17T03:08:46.766Z,99.99
2019-05-17T03:09:46.727Z,99.99
2019-05-17T03:10:46.733Z,99.99
2019-05-17T03:11:47.402Z,99.99
2019-05-17T03:12:47.544Z,99.99
2019-05-17T03:13:46.793Z,99.99
2019-05-17T03:14:46.783Z,99.99
2019-05-17T03:15:46.766Z,99.99
2019-05-17T03:16:46.748Z,99.99
2019-05-17T03:17:46.789Z,99.99
2019-05-17T03:18:46.784Z,99.99
2019-05-17T03:19:46.727Z,99.99
2019-05-17T03:20:46.780Z,99.99
2019-05-17T03:21:46.743Z,99.99
2019-05-17T03:22:47.201Z,99.99
2019-05-17T03:23:46.774Z,99.99
2019-05-17T03:24:46.831Z,99.99
2019-05-17T03:25:46.893Z,99.99
2019-05-17T03:26:46.759Z,99.99
2019-05-17T03:27:46.806Z,99.99
2019-05-17T03:28:46.794Z,99.99
2019-05-17T03:29:46.758Z,99.99
2019-05-17T03:30:55.528Z,99.99
2019-05-17T03:32:06.432Z,99.99
2019-05-17T03:32:55.413Z,99.99
2019-05-17T03:33:48.836Z,99.99
2019-05-17T03:34:47.764Z,99.99
2019-05-17T03:35:48.756Z,99.99
2019-05-17T03:36:55.714Z,99.99
2019-05-17T03:37:46.859Z,99.99
2019-05-17T03:38:46.848Z,99.99
2019-05-17T03:39:46.755Z,99.99
2019-05-17T03:41:23.123Z,99.99
2019-05-17T03:41:46.815Z,99.99
2019-05-17T03:42:46.802Z,99.99
2019-05-17T03:43:47.863Z,99.99
2019-05-17T03:44:46.796Z,99.99
2019-05-17T03:45:46.794Z,99.99
2019-05-17T03:46:46.784Z,99.99
2019-05-17T03:47:47.547Z,99.99
2019-05-17T03:48:47.097Z,99.99
2019-05-17T03:49:46.803Z,99.99
2019-05-17T03:50:46.823Z,99.99
2019-05-17T03:51:46.780Z,99.99
2019-05-17T03:52:47.576Z,99.99
2019-05-17T03:53:47.074Z,99.99
2019-05-17T03:54:46.789Z,99.99
2019-05-17T03:55:46.795Z,99.99
2019-05-17T03:56:46.811Z,99.99
2019-05-17T03:57:47.125Z,99.99
2019-05-17T03:58:46.800Z,99.99
2019-05-17T03:59:46.823Z,99.99
2019-05-17T04:00:46.789Z,99.99
2019-05-17T04:01:46.842Z,99.99
2019-05-17T04:02:47.602Z,99.99
2019-05-17T04:03:46.833Z,99.99
2019-05-17T04:04:46.835Z,99.99
2019-05-17T04:05:46.841Z,99.99
2019-05-17T04:06:46.846Z,99.99
2019-05-17T04:07:46.834Z,99.99
2019-05-17T04:08:46.861Z,99.99
2019-05-17T04:09:46.808Z,99.99
2019-05-17T04:10:46.831Z,99.99
2019-05-17T04:11:46.861Z,99.99
2019-05-17T04:12:47.299Z,99.99
2019-05-17T04:14:07.295Z,99.99
2019-05-17T04:15:06.402Z,99.99
2019-05-17T04:16:13.837Z,99.99
2019-05-17T04:19:14.048Z,99.99
2019-05-17T04:19:28.705Z,99.99
2019-05-17T04:20:28.701Z,99.99
2019-05-17T04:21:28.734Z,99.99
2019-05-17T04:22:28.711Z,99.99
2019-05-17T04:23:28.754Z,99.99
2019-05-17T04:24:28.819Z,99.99
2019-05-17T04:25:28.791Z,99.99
2019-05-17T04:26:28.712Z,99.99
2019-05-17T04:27:28.699Z,99.99
2019-05-17T04:28:28.705Z,99.99
2019-05-17T04:29:28.753Z,99.99
2019-05-17T04:30:28.685Z,99.99
2019-05-17T04:31:31.607Z,99.99
2019-05-17T04:32:28.717Z,99.99
2019-05-17T04:33:28.718Z,99.99
2019-05-17T04:34:28.754Z,99.99
2019-05-17T04:35:28.705Z,99.99
2019-05-17T04:36:28.730Z,99.99
2019-05-17T04:37:28.773Z,99.99
2019-05-17T04:38:28.721Z,99.99
2019-05-17T04:39:28.704Z,99.99
2019-05-17T04:40:28.709Z,99.99
2019-05-17T04:41:49.212Z,99.99
2019-05-17T04:42:28.723Z,99.99
2019-05-17T04:43:28.776Z,99.99
2019-05-17T04:44:28.704Z,99.99
2019-05-17T04:45:28.707Z,99.99
2019-05-17T04:46:28.747Z,99.99
2019-05-17T04:47:28.756Z,99.99
2019-05-17T04:48:28.761Z,99.99
2019-05-17T04:49:28.817Z,99.99
2019-05-17T04:50:28.735Z,99.99
2019-05-17T04:51:28.750Z,99.99
2019-05-17T04:52:28.756Z,99.99
2019-05-17T04:53:28.758Z,99.99
2019-05-17T04:54:33.069Z,99.99
2019-05-17T04:55:28.726Z,99.99
2019-05-17T04:56:28.712Z,99.99
2019-05-17T04:57:32.320Z,99.99
2019-05-17T04:58:28.798Z,99.99
2019-05-17T04:59:28.756Z,99.99
2019-05-17T05:00:28.741Z,99.99
2019-05-17T05:01:28.767Z,99.99
2019-05-17T05:02:28.853Z,99.99
2019-05-17T05:03:28.765Z,99.99
2019-05-17T05:04:28.794Z,99.99
2019-05-17T05:05:28.977Z,99.99
2019-05-17T05:06:28.780Z,99.99
2019-05-17T05:07:28.747Z,99.99
2019-05-17T05:08:28.756Z,99.99
2019-05-17T05:09:28.758Z,99.99
2019-05-17T05:10:28.762Z,99.99
2019-05-17T05:11:28.794Z,99.99
2019-05-17T05:12:28.797Z,99.99
2019-05-17T05:13:28.789Z,99.99
2019-05-17T05:14:28.836Z,99.99
2019-05-17T05:15:28.797Z,99.99
2019-05-17T05:16:28.769Z,99.99
2019-05-17T05:17:28.811Z,99.99
2019-05-17T05:18:29.124Z,99.99
2019-05-17T05:19:28.784Z,99.99
2019-05-17T05:20:28.792Z,99.99
2019-05-17T05:21:28.798Z,99.99
2019-05-17T05:22:28.842Z,99.99
2019-05-17T05:23:28.751Z,99.99
2019-05-17T05:24:31.426Z,99.99
2019-05-17T05:25:28.760Z,99.99
2019-05-17T05:26:28.798Z,99.99
2019-05-17T05:27:28.753Z,99.99
2019-05-17T05:28:28.767Z,99.99
2019-05-17T05:29:28.789Z,99.99
2019-05-17T05:30:28.791Z,99.99
2019-05-17T05:31:28.780Z,99.99
2019-05-17T05:32:28.788Z,99.99
2019-05-17T05:33:28.802Z,99.99
2019-05-17T05:34:28.835Z,99.99
2019-05-17T05:35:28.796Z,99.99
2019-05-17T05:36:28.806Z,99.99
2019-05-17T05:40:58.757Z,99.99
2019-05-17T05:42:13.921Z,99.99
2019-05-17T05:42:58.784Z,99.99
2019-05-17T05:43:58.776Z,99.99
2019-05-17T05:44:58.784Z,99.99
2019-05-17T05:45:58.748Z,99.99
2019-05-17T05:46:58.749Z,99.99
2019-05-17T05:47:58.743Z,99.99
2019-05-17T05:48:58.763Z,99.99
2019-05-17T05:49:58.794Z,99.99
2019-05-17T05:50:58.760Z,99.99
2019-05-17T05:51:58.772Z,99.99
2019-05-17T05:52:58.773Z,99.99
2019-05-17T05:53:58.775Z,99.99
2019-05-17T05:54:58.801Z,99.99
2019-05-17T05:55:58.749Z,99.99
2019-05-17T05:56:58.777Z,99.99
2019-05-17T05:57:58.784Z,99.99
2019-05-17T05:58:58.787Z,99.99
2019-05-17T05:59:58.760Z,99.99
2019-05-17T06:00:58.743Z,99.99
2019-05-17T06:01:58.773Z,99.99
2019-05-17T06:02:58.777Z,99.99
2019-05-17T06:03:58.760Z,99.99
2019-05-17T06:04:58.793Z,99.99
2019-05-17T06:05:58.760Z,99.99
2019-05-17T06:06:58.783Z,99.99
2019-05-17T06:07:58.767Z,99.99
2019-05-17T06:08:58.794Z,99.99
2019-05-17T06:10:02.010Z,99.99
2019-05-17T06:10:58.787Z,99.99
2019-05-17T06:11:58.776Z,99.99
2019-05-17T06:12:58.783Z,99.99
2019-05-17T06:13:58.793Z,99.99
2019-05-17T06:14:58.779Z,99.99
2019-05-17T06:15:58.807Z,99.99
2019-05-17T06:16:58.799Z,99.99
2019-05-17T06:17:58.792Z,99.99
2019-05-17T06:18:58.825Z,99.99
2019-05-17T06:19:58.785Z,99.99
2019-05-17T06:20:58.811Z,99.99
2019-05-17T06:26:18.146Z,99.99
2019-05-17T06:26:34.194Z,99.99
2019-05-17T06:27:34.942Z,99.99
2019-05-17T06:28:34.583Z,99.99
2019-05-17T06:29:32.733Z,99.99
2019-05-17T06:30:32.423Z,99.99
2019-05-17T06:31:33.256Z,99.99
2019-05-17T06:32:34.348Z,99.99
2019-05-17T06:33:36.351Z,99.99
2019-05-17T06:34:32.867Z,99.99
2019-05-17T06:35:32.579Z,99.99
2019-05-17T06:36:32.809Z,99.99
2019-05-17T06:37:34.376Z,99.99
2019-05-17T06:38:32.803Z,99.99
2019-05-17T06:39:32.793Z,99.99
2019-05-17T06:40:32.367Z,99.99
2019-05-17T06:41:32.424Z,99.99
2019-05-17T06:42:45.379Z,99.99
2019-05-17T06:43:34.757Z,99.99
2019-05-17T06:44:32.588Z,99.99
2019-05-17T06:45:32.639Z,99.99
2019-05-17T06:46:35.164Z,99.48
2019-05-17T06:47:32.795Z,99.86
2019-05-17T06:48:34.402Z,99.99
2019-05-17T06:49:34.411Z,99.29
2019-05-17T06:50:32.706Z,99.99
2019-05-17T06:51:34.229Z,98.57
2019-05-17T06:52:32.619Z,98.57
2019-05-17T06:53:32.443Z,99.48
2019-05-17T06:54:35.786Z,99.04
2019-05-17T06:55:34.099Z,99.38
2019-05-17T06:56:34.765Z,98.9
2019-05-17T06:57:32.604Z,98.57
2019-05-17T06:58:34.246Z,99.9
2019-05-17T06:59:32.198Z,99.99
2019-05-17T07:00:32.603Z,99.99
2019-05-17T07:01:32.135Z,99.99
2019-05-17T07:02:36.016Z,99.99
2019-05-17T07:03:32.206Z,99.99
2019-05-17T07:04:32.666Z,99.99
2019-05-17T07:05:32.159Z,99.99
2019-05-17T07:06:32.305Z,99.99
2019-05-17T07:07:33.202Z,99.24
2019-05-17T07:08:32.260Z,99.9
2019-05-17T07:09:35.648Z,99.99
2019-05-17T07:10:32.931Z,99.99
2019-05-17T07:11:33.054Z,99.99
2019-05-17T07:16:03.221Z,99.99
2019-05-17T07:17:02.992Z,99.24
2019-05-17T07:18:03.119Z,99.48
2019-05-17T07:19:03.045Z,98.43
2019-05-17T07:20:03.280Z,97.8
2019-05-17T07:21:06.147Z,98.47
2019-05-17T07:22:03.006Z,99.19
2019-05-17T07:23:03.251Z,99.95
2019-05-17T07:24:03.034Z,99.38
2019-05-17T07:25:03.067Z,99.85
2019-05-17T07:26:03.013Z,99.99
2019-05-17T07:27:03.032Z,99.99
2019-05-17T07:28:03.225Z,99.99
2019-05-17T07:29:03.033Z,99.99
2019-05-17T07:30:03.047Z,99.99
2019-05-17T07:31:03.044Z,99.9
2019-05-17T07:32:03.155Z,99.99
2019-05-17T07:33:03.258Z,99.9
2019-05-17T07:34:03.058Z,99.99
2019-05-17T07:35:03.173Z,99.99
2019-05-17T07:36:03.060Z,99.14
2019-05-17T07:37:03.050Z,98.18
2019-05-17T07:38:03.063Z,96.8
2019-05-17T07:39:03.533Z,96.99
2019-05-17T07:40:10.427Z,97.37
2019-05-17T07:41:03.059Z,97.66
2019-05-17T07:42:03.062Z,98.14
2019-05-17T07:43:14.800Z,96.89
2019-05-17T07:44:03.159Z,96.32
2019-05-17T07:45:03.342Z,96.42
2019-05-17T07:46:03.247Z,96.7
2019-05-17T07:47:03.196Z,95.94
2019-05-17T07:48:03.056Z,95.79
2019-05-17T07:49:03.212Z,95.22
2019-05-17T07:50:03.850Z,94.45
2019-05-17T07:51:03.086Z,94.36
2019-05-17T07:52:03.417Z,93.98
2019-05-17T07:53:04.135Z,93.83
2019-05-17T07:54:03.079Z,94.12
2019-05-17T07:55:04.886Z,93.07
2019-05-17T07:56:03.087Z,91.44
2019-05-17T07:57:03.096Z,91.34
2019-05-17T07:58:03.121Z,92.11
2019-05-17T07:59:03.113Z,92.16
2019-05-17T08:00:03.177Z,92.16
2019-05-17T08:01:04.948Z,93.21
2019-05-17T08:02:03.063Z,93.98
2019-05-17T08:03:03.134Z,93.88
2019-05-17T08:04:03.487Z,93.59
2019-05-17T08:05:03.390Z,93.12
2019-05-17T08:06:03.097Z,92.4
2019-05-17T08:07:03.111Z,92.25
2019-05-17T08:08:03.124Z,92.73
2019-05-17T08:09:06.867Z,93.21
2019-05-17T08:10:03.093Z,92.73
2019-05-17T08:11:03.281Z,92.25
2019-05-17T08:12:03.143Z,91.58
2019-05-17T08:13:03.179Z,92.06
2019-05-17T08:14:03.103Z,93.12
2019-05-17T08:15:05.138Z,93.4
2019-05-17T08:16:03.110Z,92.73
2019-05-17T08:17:03.126Z,92.69
2019-05-17T08:18:04.496Z,93.16
2019-05-17T08:19:03.109Z,92.73
2019-05-17T08:20:03.652Z,92.25
2019-05-17T08:21:03.123Z,92.01
2019-05-17T08:22:03.159Z,91.92
2019-05-17T08:23:05.113Z,90.43
2019-05-17T08:24:03.165Z,88.7
2019-05-17T08:25:03.112Z,88.95
2019-05-17T08:26:03.440Z,88.76
2019-05-17T08:27:03.141Z,89.58
2019-05-17T08:28:03.135Z,90.34
2019-05-17T08:29:03.508Z,90.19
2019-05-17T08:30:03.142Z,90
2019-05-17T08:31:03.869Z,89.47
2019-05-17T08:32:03.156Z,87.94
2019-05-17T08:33:03.624Z,88.03
2019-05-17T08:34:03.167Z,87.55
2019-05-17T08:35:03.266Z,86.93
2019-05-17T08:36:03.124Z,87.12
2019-05-17T08:37:03.728Z,87.12
2019-05-17T08:38:03.245Z,87.37
2019-05-17T08:39:03.190Z,86.64
2019-05-17T08:40:03.155Z,86.88
2019-05-17T08:41:03.552Z,86.21
2019-05-17T08:42:03.988Z,86.02
2019-05-17T08:43:03.178Z,86.31
2019-05-17T08:44:03.510Z,86.79
2019-05-17T08:45:03.410Z,86.79
2019-05-17T08:46:05.319Z,86.98
2019-05-17T08:47:03.197Z,87.08
2019-05-17T08:48:03.215Z,87.65
2019-05-17T08:49:03.197Z,87.46
2019-05-17T08:50:03.384Z,86.79
2019-05-17T08:51:03.184Z,87.84
2019-05-17T08:52:03.495Z,87.74
2019-05-17T08:53:03.176Z,86.98
2019-05-17T08:54:03.333Z,86.88
2019-05-17T08:55:03.195Z,85.3
2019-05-17T08:56:03.815Z,85.72
2019-05-17T08:57:03.353Z,85.3
2019-05-17T08:58:03.766Z,85.68
2019-05-17T08:59:03.613Z,85.88
2019-05-17T09:00:03.783Z,85.58
2019-05-17T09:01:04.623Z,86.64
2019-05-17T09:02:04.136Z,87.12
2019-05-17T09:03:03.282Z,87.7
2019-05-17T09:04:03.211Z,87.12
2019-05-17T09:05:03.397Z,86.54
2019-05-17T09:06:05.191Z,85.49
2019-05-17T09:07:05.794Z,85.88
2019-05-17T09:08:03.193Z,86.25
2019-05-17T09:09:03.575Z,85.49
2019-05-17T09:10:04.479Z,85.97
2019-05-17T09:11:03.324Z,85.39
2019-05-17T09:12:03.197Z,85.88
2019-05-17T09:13:03.254Z,85.58
2019-05-17T09:14:04.850Z,86.93
2019-05-17T09:15:03.322Z,86.88
2019-05-17T09:16:03.230Z,86.16
2019-05-17T09:17:03.232Z,86.45
2019-05-17T09:18:03.220Z,86.5
2019-05-17T09:19:03.333Z,85.45
2019-05-17T09:20:04.526Z,85.64
2019-05-17T09:21:03.261Z,86.02
2019-05-17T09:22:03.271Z,86.02
2019-05-17T09:23:03.252Z,86.88
2019-05-17T09:24:03.237Z,86.31
2019-05-17T09:25:03.247Z,86.88
2019-05-17T09:26:03.210Z,86.98
2019-05-17T09:27:03.282Z,87.02
2019-05-17T09:28:03.451Z,86.45
2019-05-17T09:29:04.223Z,85.78
2019-05-17T09:30:03.216Z,86.74
2019-05-17T09:31:03.252Z,86.74
2019-05-17T09:32:04.174Z,86.83
2019-05-17T09:33:03.265Z,86.69
2019-05-17T09:34:03.270Z,87.37
2019-05-17T09:35:03.517Z,86.98
2019-05-17T09:36:03.719Z,87.27
2019-05-17T09:37:03.247Z,86.88
2019-05-17T09:38:03.310Z,86.41
2019-05-17T09:39:03.277Z,87.08
2019-05-17T09:40:03.280Z,86.6
2019-05-17T09:41:03.247Z,86.88
2019-05-17T09:42:03.256Z,87.23
2019-05-17T09:43:03.281Z,87.9
2019-05-17T09:44:16.468Z,87.41
2019-05-17T09:45:03.274Z,87.17
2019-05-17T09:46:04.421Z,88.28
2019-05-17T09:47:03.272Z,88.09
2019-05-17T09:48:03.486Z,87.9
2019-05-17T09:49:03.953Z,88.23
2019-05-17T09:50:03.365Z,88.13
2019-05-17T09:51:03.265Z,88.23
2019-05-17T09:52:03.274Z,88.03
2019-05-17T09:53:03.300Z,87.32
2019-05-17T09:54:03.312Z,87.27
2019-05-17T09:55:03.347Z,87.8
2019-05-17T09:56:03.447Z,88.13
2019-05-17T09:57:03.270Z,88.85
2019-05-17T09:58:03.271Z,88.42
2019-05-17T09:59:03.302Z,88.32
2019-05-17T10:00:03.274Z,88.8
2019-05-17T10:01:04.214Z,88.32
2019-05-17T10:02:03.278Z,87.61
2019-05-17T10:03:03.288Z,87.23
2019-05-17T10:04:03.318Z,87.8
2019-05-17T10:05:03.279Z,88.09
2019-05-17T10:06:04.515Z,88.32
2019-05-17T10:07:03.333Z,87.27
2019-05-17T10:08:03.359Z,87.37
2019-05-17T10:09:03.306Z,87.84
2019-05-17T10:10:04.086Z,87.27
2019-05-17T10:11:12.052Z,87.27
2019-05-17T10:12:03.346Z,87.94
2019-05-17T10:13:03.387Z,87.79
2019-05-17T10:14:04.056Z,87.88
2019-05-17T10:15:03.341Z,86.93
2019-05-17T10:16:03.395Z,86.83
2019-05-17T10:17:03.338Z,86.35
2019-05-17T10:18:03.405Z,85.49
2019-05-17T10:19:03.368Z,85.78
2019-05-17T10:20:03.334Z,84.97
2019-05-17T10:21:03.340Z,85.97
2019-05-17T10:22:03.307Z,86.83
2019-05-17T10:23:03.438Z,86.07
2019-05-17T10:24:03.349Z,86.3
2019-05-17T10:25:03.306Z,86.11
2019-05-17T10:26:03.340Z,85.72
2019-05-17T10:27:03.339Z,85.1
2019-05-17T10:28:03.346Z,83.65
2019-05-17T10:29:03.353Z,82.64
2019-05-17T10:30:03.362Z,82.45
2019-05-17T10:31:05.135Z,82.64
2019-05-17T10:32:03.333Z,82.35
2019-05-17T10:33:03.389Z,83.12
2019-05-17T10:34:03.757Z,83.85
2019-05-17T10:35:03.437Z,84.95
2019-05-17T10:36:03.342Z,85.28
2019-05-17T10:37:04.248Z,85.1
2019-05-17T10:38:03.371Z,84.08
2019-05-17T10:39:03.385Z,82.84
2019-05-17T10:40:03.363Z,82.89
2019-05-17T10:41:03.370Z,83.85
2019-05-17T10:42:03.357Z,82.64
2019-05-17T10:43:03.490Z,82.6
2019-05-17T10:44:03.371Z,82.51
2019-05-17T10:45:03.400Z,82.64
2019-05-17T10:46:03.363Z,82.7
2019-05-17T10:47:03.372Z,82.64
2019-05-17T10:48:03.499Z,83.08
2019-05-17T10:49:03.387Z,82.54
2019-05-17T10:50:03.455Z,82.4
2019-05-17T10:51:03.371Z,82.35
2019-05-17T10:52:03.402Z,81.92
2019-05-17T10:53:03.425Z,81.87
2019-05-17T10:54:04.505Z,82.84
2019-05-17T10:55:03.406Z,82.74
2019-05-17T10:56:03.514Z,81.59
2019-05-17T10:57:03.374Z,81.63
2019-05-17T10:58:03.523Z,81.63
2019-05-17T10:59:03.366Z,81.04
2019-05-17T11:00:03.423Z,81.81
2019-05-17T11:01:03.688Z,80.5
2019-05-17T11:02:03.431Z,79.69
2019-05-17T11:03:03.440Z,78.25
2019-05-17T11:04:03.386Z,78.3
2019-05-17T11:05:03.657Z,77.67
2019-05-17T11:06:03.559Z,77.86
2019-05-17T11:07:04.286Z,78.34
2019-05-17T11:08:03.448Z,78.83
2019-05-17T11:09:03.416Z,78.83
2019-05-17T11:10:03.627Z,78.83
2019-05-17T11:11:03.429Z,78.09
2019-05-17T11:12:03.454Z,78.58
2019-05-17T11:13:03.479Z,78.86
2019-05-17T11:14:03.730Z,77.75
2019-05-17T11:15:13.997Z,77.42
2019-05-17T11:16:03.419Z,78.08
2019-05-17T11:17:03.499Z,77.21
2019-05-17T11:18:03.433Z,77.78
2019-05-17T11:19:03.444Z,78.36
2019-05-17T11:20:04.139Z,76.86
2019-05-17T11:21:03.425Z,77.06
2019-05-17T11:22:03.423Z,75.03
2019-05-17T11:23:03.463Z,75.03
2019-05-17T11:24:03.428Z,74.07
2019-05-17T11:25:03.514Z,74.16
2019-05-17T11:26:03.777Z,73.82
2019-05-17T11:27:03.467Z,73.58
2019-05-17T11:28:03.458Z,74.88
2019-05-17T11:29:03.482Z,74.68
2019-05-17T11:30:03.455Z,73.72
2019-05-17T11:31:03.459Z,74.01
2019-05-17T11:32:03.466Z,73.91
2019-05-17T11:33:03.470Z,72.85
2019-05-17T11:35:00.098Z,73.82
2019-05-17T11:36:00.087Z,74.45
2019-05-17T11:37:00.130Z,74.93
2019-05-17T11:38:00.119Z,75.09
2019-05-17T11:39:00.150Z,75.67
2019-05-17T11:40:00.089Z,75.34
2019-05-17T11:41:00.117Z,75.28
2019-05-17T11:42:00.108Z,74.51
2019-05-17T11:43:00.140Z,74.41
2019-05-17T11:44:00.157Z,74.51
2019-05-17T11:45:00.210Z,75.15
2019-05-17T11:46:00.140Z,75.92
2019-05-17T11:47:00.101Z,74.9
2019-05-17T11:48:00.099Z,74.9
2019-05-17T11:49:00.105Z,73.97
2019-05-17T11:50:00.161Z,73.55
2019-05-17T11:51:00.224Z,73.74
2019-05-17T11:52:00.106Z,73.2
2019-05-17T11:53:00.114Z,73.1
2019-05-17T11:54:00.126Z,73.39
2019-05-17T11:55:00.159Z,73.72
2019-05-17T11:56:00.144Z,74.26
2019-05-17T11:57:00.122Z,75.28
2019-05-17T11:58:00.189Z,74.93
2019-05-17T11:59:00.113Z,74.55
2019-05-17T12:00:00.145Z,73.97
2019-05-17T12:01:00.149Z,73.88
2019-05-17T12:02:00.155Z,73.82
2019-05-17T12:03:00.145Z,73.75
2019-05-17T12:04:00.165Z,72.89
2019-05-17T12:05:00.138Z,73.18
2019-05-17T12:06:00.172Z,72.34
2019-05-17T12:07:00.261Z,71.48
2019-05-17T12:08:00.421Z,72.44
2019-05-17T12:09:00.171Z,72.89
2019-05-17T12:10:00.174Z,73.31
2019-05-17T12:11:00.482Z,71.86
2019-05-17T12:12:00.187Z,71.25
2019-05-17T12:13:00.197Z,71.25
2019-05-17T12:14:00.214Z,71.34
2019-05-17T12:15:00.169Z,70.86
2019-05-17T12:16:00.155Z,70.48
2019-05-17T12:17:00.177Z,71.83
2019-05-17T12:18:00.182Z,72.34
2019-05-17T12:19:00.303Z,71.09
2019-05-17T12:20:00.178Z,71.67
2019-05-17T12:21:00.200Z,70.61
2019-05-17T12:22:00.170Z,71.34
2019-05-17T12:23:00.332Z,72.12
2019-05-17T12:24:00.206Z,71.44
2019-05-17T12:25:00.479Z,71.19
2019-05-17T12:26:00.340Z,70.61
2019-05-17T12:27:00.308Z,71
2019-05-17T12:28:00.498Z,70.51
2019-05-17T12:29:00.195Z,70.13
2019-05-17T12:30:00.211Z,71.03
2019-05-17T12:31:00.186Z,69.39
2019-05-17T12:37:12.773Z,72.19
2019-05-17T12:37:24.121Z,70.94
2019-05-17T12:38:24.087Z,70.54
2019-05-17T12:45:59.914Z,70.42
2019-05-17T12:46:11.285Z,70.51
2019-05-17T12:47:11.244Z,70.36
2019-05-17T12:48:11.253Z,70.42
2019-05-17T12:49:11.262Z,70.54
2019-05-17T12:50:11.223Z,69.97
2019-05-17T12:55:28.613Z,70.94
2019-05-17T12:55:40.151Z,70.13
2019-05-17T12:56:40.147Z,71.22
2019-05-17T12:57:40.125Z,71.12
2019-05-17T12:58:40.180Z,70.61
2019-05-17T12:59:40.117Z,70.25
2019-05-17T13:00:40.419Z,70.92
2019-05-17T13:01:40.114Z,70.61
2019-05-17T13:02:40.124Z,71.58
2019-05-17T13:03:40.132Z,72.44
2019-05-17T13:04:40.222Z,71.73
2019-05-17T13:05:40.177Z,71.06
2019-05-17T13:06:40.111Z,70.48
2019-05-17T13:07:43.197Z,71.25
2019-05-17T13:08:40.408Z,71.92
2019-05-17T13:09:40.508Z,71.38
2019-05-17T13:10:40.180Z,71.12
2019-05-17T13:11:40.098Z,69.39
2019-05-17T13:12:40.107Z,68.91
2019-05-17T13:13:40.148Z,68.62
2019-05-17T13:14:40.160Z,70.42
2019-05-17T13:15:40.147Z,69.55
2019-05-17T13:16:40.140Z,69
2019-05-17T13:17:40.146Z,68.65
2019-05-17T13:18:40.154Z,69.29
2019-05-17T13:19:40.161Z,69.68
2019-05-17T13:20:40.260Z,70.1
2019-05-17T13:21:40.124Z,68.94
2019-05-17T13:22:40.177Z,68.68
2019-05-17T13:23:40.146Z,69.42
2019-05-17T13:24:40.206Z,69.04
2019-05-17T13:25:40.157Z,69
2019-05-17T13:26:40.166Z,68.87
2019-05-17T13:27:42.008Z,68.81
2019-05-17T13:28:40.313Z,68.52
2019-05-17T13:29:40.143Z,68.23
2019-05-17T13:30:40.205Z,67.36
2019-05-17T13:31:40.186Z,67.85
2019-05-17T13:35:12.448Z,68.52
2019-05-17T13:36:12.728Z,67.59
2019-05-17T13:37:12.455Z,68.55
2019-05-17T13:38:12.487Z,68.26